Kieimaru — JJ3880 — position and weather

sailwx.info

Track history (hours):
 
Tides and Currents Weather Stations Pressure Air Temp Water Temp Dewpoint Dewpoint Depression Visibility Wind Speed Wind Dir Waves Ship Positions

Kieimaru

Last reported at 2017-Nov-19 21:32 UTC. Time now 2017-Nov-22 01:34 UTC.
Position N 34°41' E 134°45'.

Length 100 m; draft 6.8 m.

Type: Cargo ship. MMSI: 431300131.

Date/timePositionNaut miles runAvg speedWind from/ knotsBaromVisibWave heightAir tempDewpointWater temp
2017-Nov-19 21:32N 34°41' E 134°45'0 0.5
2017-Nov-19 21:26N 34°41' E 134°45'0 0.0
2017-Nov-19 20:14N 34°41' E 134°45'0 0.5
2017-Nov-19 19:56N 34°41' E 134°46'5 9.1
2017-Nov-19 19:23N 34°39' E 134°51'4 9.4
2017-Nov-19 19:00N 34°37' E 134°55'5 9.2
2017-Nov-19 18:27N 34°37' E 135°01'3 6.4
2017-Nov-19 18:00N 34°36' E 135°04'4 7.6
2017-Nov-19 17:30N 34°32' E 135°05'510.3
2017-Nov-19 16:59N 34°27' E 135°03'510.1
2017-Nov-19 16:28N 34°22' E 135°01'6 9.2
2017-Nov-19 15:51N 34°16' E 134°59'3 8.8
2017-Nov-19 15:30N 34°13' E 134°59'510.4
2017-Nov-19 15:00N 34°08' E 134°59'2 0.1
2017-Nov-18 13:00N 34°09' E 134°56'1912.9
2017-Nov-18 11:34N 34°27' E 135°01'312.4
2017-Nov-18 11:21N 34°30' E 135°02'411.7
2017-Nov-18 11:00N 34°34' E 135°03'5 7.5
2017-Nov-18 10:22N 34°37' E 134°58'410.4
2017-Nov-18 10:00N 34°37' E 134°53'5 0.3
2017-Nov-17 19:00N 34°41' E 134°50'5 9.0
2017-Nov-17 18:25N 34°37' E 134°54'410.2
2017-Nov-17 17:59N 34°38' E 134°59'4 7.4
2017-Nov-17 17:30N 34°36' E 135°03'3 6.3
2017-Nov-17 17:00N 34°33' E 135°05'610.4
2017-Nov-17 16:27N 34°28' E 135°03'510.5
2017-Nov-17 15:59N 34°23' E 135°02'6 9.9
2017-Nov-17 15:23N 34°18' E 134°59'3 8.5
2017-Nov-17 15:00N 34°14' E 134°59'510.3
2017-Nov-17 14:29N 34°09' E 134°59'3 0.1
2017-Nov-16 13:29N 34°08' E 134°56'613.7
2017-Nov-16 13:00N 34°14' E 134°58'2012.9
2017-Nov-16 11:26N 34°34' E 135°02'4 8.8
2017-Nov-16 11:00N 34°37' E 135°00'10 0.7
2017-Nov-15 20:43N 34°41' E 134°50'1 6.8
2017-Nov-15 20:30N 34°40' E 134°49'4 8.4
2017-Nov-15 19:59N 34°38' E 134°53'612.0
2017-Nov-15 19:29N 34°37' E 135°00'510.3
2017-Nov-15 19:00N 34°35' E 135°05'611.3
2017-Nov-15 18:30N 34°29' E 135°04'611.1
2017-Nov-15 17:57N 34°23' E 135°02'710.5
2017-Nov-15 17:15N 34°16' E 134°59'2 9.5
2017-Nov-15 17:00N 34°14' E 134°59'5 9.6
2017-Nov-15 16:30N 34°09' E 134°59'2 0.1
2017-Nov-14 13:11N 34°09' E 134°56'313.3
2017-Nov-14 12:56N 34°12' E 134°57'1913.3
2017-Nov-14 11:32N 34°30' E 135°02'112.8
2017-Nov-14 11:29N 34°31' E 135°02'511.1
2017-Nov-14 11:00N 34°36' E 135°02'611.8
2017-Nov-14 10:31N 34°37' E 134°55'611.6
2017-Nov-14 09:59N 34°40' E 134°49'1 0.1
2017-Nov-13 22:07N 34°41' E 134°50'1 7.0
2017-Nov-13 22:00N 34°41' E 134°49'30 1.1
2017-Nov-12 19:15N 34°12' E 134°57'311.9
2017-Nov-12 19:00N 34°15' E 134°58'1211.4
2017-Nov-12 17:57N 34°26' E 135°00'511.5
2017-Nov-12 17:30N 34°31' E 135°02'5 9.9
2017-Nov-12 17:00N 34°36' E 135°02'611.2
2017-Nov-12 16:29N 34°37' E 134°55'611.9
2017-Nov-12 15:59N 34°40' E 134°49'  
2017-Nov-09 23:52N 34°41' E 134°49'5 9.0
2017-Nov-09 23:19N 34°37' E 134°54'410.7
2017-Nov-09 22:56N 34°38' E 134°59'4 8.5
2017-Nov-09 22:30N 34°36' E 135°03'4 7.6
2017-Nov-09 22:00N 34°33' E 135°05'  
Track history (hours):
 
Tides and Currents Weather Stations Pressure Air Temp Water Temp Dewpoint Dewpoint Depression Visibility Wind Speed Wind Dir Waves Ship Positions

Kieimaru

Last reported at 2017-Nov-19 21:32 UTC. Time now 2017-Nov-22 01:34 UTC.
Position N 34°41' E 134°45'.

Length 100 m; draft 6.8 m.

Type: Cargo ship. MMSI: 431300131.

Date/timePositionNaut miles runAvg speedWind from/ knotsBaromVisibWave heightAir tempDewpointWater temp
2017-Nov-19 21:32N 34°41' E 134°45'0 0.5
2017-Nov-19 21:26N 34°41' E 134°45'0 0.0
2017-Nov-19 20:14N 34°41' E 134°45'0 0.5
2017-Nov-19 19:56N 34°41' E 134°46'5 9.1
2017-Nov-19 19:23N 34°39' E 134°51'4 9.4
2017-Nov-19 19:00N 34°37' E 134°55'5 9.2
2017-Nov-19 18:27N 34°37' E 135°01'3 6.4
2017-Nov-19 18:00N 34°36' E 135°04'4 7.6
2017-Nov-19 17:30N 34°32' E 135°05'510.3
2017-Nov-19 16:59N 34°27' E 135°03'510.1
2017-Nov-19 16:28N 34°22' E 135°01'6 9.2
2017-Nov-19 15:51N 34°16' E 134°59'3 8.8
2017-Nov-19 15:30N 34°13' E 134°59'510.4
2017-Nov-19 15:00N 34°08' E 134°59'2 0.1
2017-Nov-18 13:00N 34°09' E 134°56'1912.9
2017-Nov-18 11:34N 34°27' E 135°01'312.4
2017-Nov-18 11:21N 34°30' E 135°02'411.7
2017-Nov-18 11:00N 34°34' E 135°03'5 7.5
2017-Nov-18 10:22N 34°37' E 134°58'410.4
2017-Nov-18 10:00N 34°37' E 134°53'5 0.3
2017-Nov-17 19:00N 34°41' E 134°50'5 9.0
2017-Nov-17 18:25N 34°37' E 134°54'410.2
2017-Nov-17 17:59N 34°38' E 134°59'4 7.4
2017-Nov-17 17:30N 34°36' E 135°03'3 6.3
2017-Nov-17 17:00N 34°33' E 135°05'610.4
2017-Nov-17 16:27N 34°28' E 135°03'510.5
2017-Nov-17 15:59N 34°23' E 135°02'6 9.9
2017-Nov-17 15:23N 34°18' E 134°59'3 8.5
2017-Nov-17 15:00N 34°14' E 134°59'510.3
2017-Nov-17 14:29N 34°09' E 134°59'3 0.1
2017-Nov-16 13:29N 34°08' E 134°56'613.7
2017-Nov-16 13:00N 34°14' E 134°58'2012.9
2017-Nov-16 11:26N 34°34' E 135°02'4 8.8
2017-Nov-16 11:00N 34°37' E 135°00'10 0.7
2017-Nov-15 20:43N 34°41' E 134°50'1 6.8
2017-Nov-15 20:30N 34°40' E 134°49'4 8.4
2017-Nov-15 19:59N 34°38' E 134°53'612.0
2017-Nov-15 19:29N 34°37' E 135°00'510.3
2017-Nov-15 19:00N 34°35' E 135°05'611.3
2017-Nov-15 18:30N 34°29' E 135°04'611.1
2017-Nov-15 17:57N 34°23' E 135°02'710.5
2017-Nov-15 17:15N 34°16' E 134°59'2 9.5
2017-Nov-15 17:00N 34°14' E 134°59'5 9.6
2017-Nov-15 16:30N 34°09' E 134°59'2 0.1
2017-Nov-14 13:11N 34°09' E 134°56'313.3
2017-Nov-14 12:56N 34°12' E 134°57'1913.3
2017-Nov-14 11:32N 34°30' E 135°02'112.8
2017-Nov-14 11:29N 34°31' E 135°02'511.1
2017-Nov-14 11:00N 34°36' E 135°02'611.8
2017-Nov-14 10:31N 34°37' E 134°55'611.6
2017-Nov-14 09:59N 34°40' E 134°49'1 0.1
2017-Nov-13 22:07N 34°41' E 134°50'1 7.0
2017-Nov-13 22:00N 34°41' E 134°49'30 1.1
2017-Nov-12 19:15N 34°12' E 134°57'311.9
2017-Nov-12 19:00N 34°15' E 134°58'1211.4
2017-Nov-12 17:57N 34°26' E 135°00'511.5
2017-Nov-12 17:30N 34°31' E 135°02'5 9.9
2017-Nov-12 17:00N 34°36' E 135°02'611.2
2017-Nov-12 16:29N 34°37' E 134°55'611.9
2017-Nov-12 15:59N 34°40' E 134°49'  
2017-Nov-09 23:52N 34°41' E 134°49'5 9.0
2017-Nov-09 23:19N 34°37' E 134°54'410.7
2017-Nov-09 22:56N 34°38' E 134°59'4 8.5
2017-Nov-09 22:30N 34°36' E 135°03'4 7.6
2017-Nov-09 22:00N 34°33' E 135°05'  

Dump ship's entire track history